sensor_id;sensor_type;location;lat;lon;timestamp;temperature;humidity
43651;DHT22;29247;50.944;5.382;2023-09-08T00:00:47;21.20;92.10
43651;DHT22;29247;50.944;5.382;2023-09-08T00:03:15;21.20;92.20
43651;DHT22;29247;50.944;5.382;2023-09-08T00:05:43;21.20;92.60
43651;DHT22;29247;50.944;5.382;2023-09-08T00:08:09;21.20;92.00
43651;DHT22;29247;50.944;5.382;2023-09-08T00:10:34;21.10;91.80
43651;DHT22;29247;50.944;5.382;2023-09-08T00:13:00;21.10;91.80
43651;DHT22;29247;50.944;5.382;2023-09-08T00:15:28;21.00;91.70
43651;DHT22;29247;50.944;5.382;2023-09-08T00:17:56;21.00;91.80
43651;DHT22;29247;50.944;5.382;2023-09-08T00:20:22;20.90;91.80
43651;DHT22;29247;50.944;5.382;2023-09-08T00:22:52;20.90;91.90
43651;DHT22;29247;50.944;5.382;2023-09-08T00:25:18;20.90;91.90
43651;DHT22;29247;50.944;5.382;2023-09-08T00:27:44;20.90;91.90
43651;DHT22;29247;50.944;5.382;2023-09-08T00:30:09;20.90;91.80
43651;DHT22;29247;50.944;5.382;2023-09-08T00:32:38;20.80;91.80
43651;DHT22;29247;50.944;5.382;2023-09-08T00:35:06;20.70;91.80
43651;DHT22;29247;50.944;5.382;2023-09-08T00:37:33;20.70;91.90
43651;DHT22;29247;50.944;5.382;2023-09-08T00:40:01;20.70;92.00
43651;DHT22;29247;50.944;5.382;2023-09-08T00:42:29;20.60;92.00
43651;DHT22;29247;50.944;5.382;2023-09-08T00:45:00;20.60;92.10
43651;DHT22;29247;50.944;5.382;2023-09-08T00:47:25;20.60;92.20
43651;DHT22;29247;50.944;5.382;2023-09-08T00:49:53;20.60;92.20
43651;DHT22;29247;50.944;5.382;2023-09-08T00:52:19;20.60;92.40
43651;DHT22;29247;50.944;5.382;2023-09-08T00:54:47;20.60;92.50
43651;DHT22;29247;50.944;5.382;2023-09-08T00:57:13;20.60;92.50
43651;DHT22;29247;50.944;5.382;2023-09-08T00:59:41;20.60;92.40
43651;DHT22;29247;50.944;5.382;2023-09-08T01:02:08;20.60;92.40
43651;DHT22;29247;50.944;5.382;2023-09-08T01:04:34;20.60;92.40
43651;DHT22;29247;50.944;5.382;2023-09-08T01:07:02;20.60;92.50
43651;DHT22;29247;50.944;5.382;2023-09-08T01:09:31;20.60;92.60
43651;DHT22;29247;50.944;5.382;2023-09-08T01:11:57;20.60;92.60
43651;DHT22;29247;50.944;5.382;2023-09-08T01:14:27;20.60;92.50
43651;DHT22;29247;50.944;5.382;2023-09-08T01:16:55;20.60;92.40
43651;DHT22;29247;50.944;5.382;2023-09-08T01:19:23;20.50;92.20
43651;DHT22;29247;50.944;5.382;2023-09-08T01:27:24;20.30;92.20
43651;DHT22;29247;50.944;5.382;2023-09-08T01:29:51;20.30;92.30
43651;DHT22;29247;50.944;5.382;2023-09-08T01:32:23;20.20;92.50
43651;DHT22;29247;50.944;5.382;2023-09-08T01:34:49;20.20;92.60
43651;DHT22;29247;50.944;5.382;2023-09-08T01:37:17;20.20;92.70
43651;DHT22;29247;50.944;5.382;2023-09-08T01:39:46;20.20;92.80
43651;DHT22;29247;50.944;5.382;2023-09-08T01:42:11;20.20;92.60
43651;DHT22;29247;50.944;5.382;2023-09-08T01:44:37;20.20;92.60
43651;DHT22;29247;50.944;5.382;2023-09-08T01:47:03;20.10;92.70
43651;DHT22;29247;50.944;5.382;2023-09-08T01:49:28;20.10;92.80
43651;DHT22;29247;50.944;5.382;2023-09-08T01:51:54;20.10;92.80
43651;DHT22;29247;50.944;5.382;2023-09-08T01:54:21;20.10;92.90
43651;DHT22;29247;50.944;5.382;2023-09-08T01:56:47;20.10;92.90
43651;DHT22;29247;50.944;5.382;2023-09-08T01:59:15;20.10;92.70
43651;DHT22;29247;50.944;5.382;2023-09-08T02:01:43;20.00;92.50
43651;DHT22;29247;50.944;5.382;2023-09-08T02:04:09;20.00;92.60
43651;DHT22;29247;50.944;5.382;2023-09-08T02:06:34;20.00;92.80
43651;DHT22;29247;50.944;5.382;2023-09-08T02:09:02;20.00;93.00
43651;DHT22;29247;50.944;5.382;2023-09-08T02:11:31;20.00;93.10
43651;DHT22;29247;50.944;5.382;2023-09-08T02:13:56;20.00;93.10
43651;DHT22;29247;50.944;5.382;2023-09-08T02:16:22;20.00;93.10
43651;DHT22;29247;50.944;5.382;2023-09-08T02:18:50;19.90;93.00
43651;DHT22;29247;50.944;5.382;2023-09-08T02:21:16;19.90;92.70
43651;DHT22;29247;50.944;5.382;2023-09-08T02:23:42;19.90;92.90
43651;DHT22;29247;50.944;5.382;2023-09-08T02:26:07;19.90;93.00
43651;DHT22;29247;50.944;5.382;2023-09-08T02:28:33;19.90;93.10
43651;DHT22;29247;50.944;5.382;2023-09-08T02:31:01;19.80;93.20
43651;DHT22;29247;50.944;5.382;2023-09-08T02:33:26;19.90;93.20
43651;DHT22;29247;50.944;5.382;2023-09-08T02:35:55;19.80;93.20
43651;DHT22;29247;50.944;5.382;2023-09-08T02:38:20;19.80;93.00
43651;DHT22;29247;50.944;5.382;2023-09-08T02:40:48;19.70;93.00
43651;DHT22;29247;50.944;5.382;2023-09-08T02:43:16;19.70;93.10
43651;DHT22;29247;50.944;5.382;2023-09-08T02:45:42;19.70;93.30
43651;DHT22;29247;50.944;5.382;2023-09-08T02:48:07;19.70;93.30
43651;DHT22;29247;50.944;5.382;2023-09-08T02:50:33;19.70;93.40
43651;DHT22;29247;50.944;5.382;2023-09-08T02:53:01;19.70;93.30
43651;DHT22;29247;50.944;5.382;2023-09-08T02:55:27;19.60;93.30
43651;DHT22;29247;50.944;5.382;2023-09-08T02:57:52;19.60;93.30
43651;DHT22;29247;50.944;5.382;2023-09-08T03:00:18;19.60;93.50
43651;DHT22;29247;50.944;5.382;2023-09-08T03:02:44;19.60;93.60
43651;DHT22;29247;50.944;5.382;2023-09-08T03:05:10;19.60;93.60
43651;DHT22;29247;50.944;5.382;2023-09-08T03:07:35;19.60;93.60
43651;DHT22;29247;50.944;5.382;2023-09-08T03:10:03;19.60;93.60
43651;DHT22;29247;50.944;5.382;2023-09-08T03:12:30;19.60;93.50
43651;DHT22;29247;50.944;5.382;2023-09-08T03:14:55;19.60;93.50
43651;DHT22;29247;50.944;5.382;2023-09-08T03:17:21;19.60;93.50
43651;DHT22;29247;50.944;5.382;2023-09-08T03:19:47;19.50;93.50
43651;DHT22;29247;50.944;5.382;2023-09-08T03:22:12;19.50;93.70
43651;DHT22;29247;50.944;5.382;2023-09-08T03:24:40;19.50;93.70
43651;DHT22;29247;50.944;5.382;2023-09-08T03:27:06;19.50;93.80
43651;DHT22;29247;50.944;5.382;2023-09-08T03:29:31;19.50;93.80
43651;DHT22;29247;50.944;5.382;2023-09-08T03:31:57;19.50;93.80
43651;DHT22;29247;50.944;5.382;2023-09-08T03:34:25;19.50;93.80
43651;DHT22;29247;50.944;5.382;2023-09-08T03:36:53;19.50;93.70
43651;DHT22;29247;50.944;5.382;2023-09-08T03:39:21;19.40;93.70
43651;DHT22;29247;50.944;5.382;2023-09-08T03:41:47;19.40;93.80
43651;DHT22;29247;50.944;5.382;2023-09-08T03:44:12;19.40;93.80
43651;DHT22;29247;50.944;5.382;2023-09-08T03:46:38;19.40;93.80
43651;DHT22;29247;50.944;5.382;2023-09-08T03:49:04;19.40;93.90
43651;DHT22;29247;50.944;5.382;2023-09-08T03:51:31;19.40;94.00
43651;DHT22;29247;50.944;5.382;2023-09-08T03:53:59;19.40;94.10
43651;DHT22;29247;50.944;5.382;2023-09-08T03:56:25;19.40;93.90
43651;DHT22;29247;50.944;5.382;2023-09-08T03:58:53;19.40;93.90
43651;DHT22;29247;50.944;5.382;2023-09-08T04:01:21;19.40;94.00
43651;DHT22;29247;50.944;5.382;2023-09-08T04:03:46;19.30;94.00
43651;DHT22;29247;50.944;5.382;2023-09-08T04:06:12;19.30;94.10
43651;DHT22;29247;50.944;5.382;2023-09-08T04:08:40;19.30;94.20
43651;DHT22;29247;50.944;5.382;2023-09-08T04:11:07;19.30;94.20
43651;DHT22;29247;50.944;5.382;2023-09-08T04:13:33;19.30;94.20
43651;DHT22;29247;50.944;5.382;2023-09-08T04:15:59;19.30;94.20
43651;DHT22;29247;50.944;5.382;2023-09-08T04:18:24;19.30;94.20
43651;DHT22;29247;50.944;5.382;2023-09-08T04:20:50;19.20;94.30
43651;DHT22;29247;50.944;5.382;2023-09-08T04:23:20;19.20;94.30
43651;DHT22;29247;50.944;5.382;2023-09-08T04:25:46;19.20;94.30
43651;DHT22;29247;50.944;5.382;2023-09-08T04:28:11;19.20;94.40
43651;DHT22;29247;50.944;5.382;2023-09-08T04:30:39;19.20;94.40
43651;DHT22;29247;50.944;5.382;2023-09-08T04:33:05;19.20;94.50
43651;DHT22;29247;50.944;5.382;2023-09-08T04:35:31;19.20;94.40
43651;DHT22;29247;50.944;5.382;2023-09-08T04:38:02;19.20;94.40
43651;DHT22;29247;50.944;5.382;2023-09-08T04:40:27;19.20;94.40
43651;DHT22;29247;50.944;5.382;2023-09-08T04:42:54;19.20;94.50
43651;DHT22;29247;50.944;5.382;2023-09-08T04:45:19;19.20;94.50
43651;DHT22;29247;50.944;5.382;2023-09-08T04:47:50;19.10;94.50
43651;DHT22;29247;50.944;5.382;2023-09-08T04:50:20;19.10;94.40
43651;DHT22;29247;50.944;5.382;2023-09-08T04:52:45;19.10;94.30
43651;DHT22;29247;50.944;5.382;2023-09-08T04:55:11;19.10;94.30
43651;DHT22;29247;50.944;5.382;2023-09-08T04:57:37;19.00;94.40
43651;DHT22;29247;50.944;5.382;2023-09-08T05:00:03;19.00;94.50
43651;DHT22;29247;50.944;5.382;2023-09-08T05:02:28;19.00;94.60
43651;DHT22;29247;50.944;5.382;2023-09-08T05:04:56;19.00;94.60
43651;DHT22;29247;50.944;5.382;2023-09-08T05:07:22;19.00;94.70
43651;DHT22;29247;50.944;5.382;2023-09-08T05:09:48;19.00;94.80
43651;DHT22;29247;50.944;5.382;2023-09-08T05:12:13;19.00;94.80
43651;DHT22;29247;50.944;5.382;2023-09-08T05:14:39;19.00;95.00
43651;DHT22;29247;50.944;5.382;2023-09-08T05:17:07;19.00;94.60
43651;DHT22;29247;50.944;5.382;2023-09-08T05:19:35;18.90;94.60
43651;DHT22;29247;50.944;5.382;2023-09-08T05:22:01;18.90;94.80
43651;DHT22;29247;50.944;5.382;2023-09-08T05:24:29;18.90;94.90
43651;DHT22;29247;50.944;5.382;2023-09-08T05:26:56;18.90;94.90
43651;DHT22;29247;50.944;5.382;2023-09-08T05:29:22;18.90;94.90
43651;DHT22;29247;50.944;5.382;2023-09-08T05:31:52;18.90;94.90
43651;DHT22;29247;50.944;5.382;2023-09-08T05:34:20;18.90;94.90
43651;DHT22;29247;50.944;5.382;2023-09-08T05:36:46;18.90;94.90
43651;DHT22;29247;50.944;5.382;2023-09-08T05:39:14;18.90;95.00
43651;DHT22;29247;50.944;5.382;2023-09-08T05:41:40;18.90;95.00
43651;DHT22;29247;50.944;5.382;2023-09-08T05:44:05;18.90;95.10
43651;DHT22;29247;50.944;5.382;2023-09-08T05:46:31;18.90;95.10
43651;DHT22;29247;50.944;5.382;2023-09-08T05:48:57;18.90;95.20
43651;DHT22;29247;50.944;5.382;2023-09-08T05:51:23;18.90;95.20
43651;DHT22;29247;50.944;5.382;2023-09-08T05:53:48;18.90;95.30
43651;DHT22;29247;50.944;5.382;2023-09-08T05:56:14;18.90;95.40
43651;DHT22;29247;50.944;5.382;2023-09-08T05:58:44;18.90;95.50
43651;DHT22;29247;50.944;5.382;2023-09-08T06:01:12;18.90;95.50
43651;DHT22;29247;50.944;5.382;2023-09-08T06:03:38;18.90;95.60
43651;DHT22;29247;50.944;5.382;2023-09-08T06:06:06;19.00;95.70
43651;DHT22;29247;50.944;5.382;2023-09-08T06:08:31;19.00;95.80
43651;DHT22;29247;50.944;5.382;2023-09-08T06:10:57;19.10;95.90
43651;DHT22;29247;50.944;5.382;2023-09-08T06:13:23;19.10;96.00
43651;DHT22;29247;50.944;5.382;2023-09-08T06:15:51;19.10;96.10
43651;DHT22;29247;50.944;5.382;2023-09-08T06:18:16;19.10;96.10
43651;DHT22;29247;50.944;5.382;2023-09-08T06:20:46;19.20;96.20
43651;DHT22;29247;50.944;5.382;2023-09-08T06:23:12;19.20;96.30
43651;DHT22;29247;50.944;5.382;2023-09-08T06:25:40;19.20;96.30
43651;DHT22;29247;50.944;5.382;2023-09-08T06:28:06;19.30;96.40
43651;DHT22;29247;50.944;5.382;2023-09-08T06:30:32;19.30;96.40
43651;DHT22;29247;50.944;5.382;2023-09-08T06:32:57;19.30;96.40
43651;DHT22;29247;50.944;5.382;2023-09-08T06:35:25;19.40;96.50
43651;DHT22;29247;50.944;5.382;2023-09-08T06:37:51;19.40;96.50
43651;DHT22;29247;50.944;5.382;2023-09-08T06:40:21;19.40;96.50
43651;DHT22;29247;50.944;5.382;2023-09-08T06:42:47;19.50;96.50
43651;DHT22;29247;50.944;5.382;2023-09-08T06:45:12;19.50;96.60
43651;DHT22;29247;50.944;5.382;2023-09-08T06:47:38;19.50;96.60
43651;DHT22;29247;50.944;5.382;2023-09-08T06:50:06;19.50;96.60
43651;DHT22;29247;50.944;5.382;2023-09-08T06:52:32;19.60;96.70
43651;DHT22;29247;50.944;5.382;2023-09-08T06:54:58;19.60;96.70
43651;DHT22;29247;50.944;5.382;2023-09-08T06:57:23;19.60;96.80
43651;DHT22;29247;50.944;5.382;2023-09-08T06:59:49;19.70;96.90
43651;DHT22;29247;50.944;5.382;2023-09-08T07:02:17;19.70;97.00
43651;DHT22;29247;50.944;5.382;2023-09-08T07:04:45;19.80;97.10
43651;DHT22;29247;50.944;5.382;2023-09-08T07:07:10;19.80;97.10
43651;DHT22;29247;50.944;5.382;2023-09-08T07:09:39;19.80;97.20
43651;DHT22;29247;50.944;5.382;2023-09-08T07:12:05;19.80;97.20
43651;DHT22;29247;50.944;5.382;2023-09-08T07:14:31;19.90;97.30
43651;DHT22;29247;50.944;5.382;2023-09-08T07:16:57;20.00;97.40
43651;DHT22;29247;50.944;5.382;2023-09-08T07:19:23;20.00;97.50
43651;DHT22;29247;50.944;5.382;2023-09-08T07:21:51;20.10;97.50
43651;DHT22;29247;50.944;5.382;2023-09-08T07:24:17;20.10;97.60
43651;DHT22;29247;50.944;5.382;2023-09-08T07:26:42;20.10;97.60
43651;DHT22;29247;50.944;5.382;2023-09-08T07:29:08;20.20;97.80
43651;DHT22;29247;50.944;5.382;2023-09-08T07:31:34;20.20;97.80
43651;DHT22;29247;50.944;5.382;2023-09-08T07:33:59;20.30;97.90
43651;DHT22;29247;50.944;5.382;2023-09-08T07:36:27;20.40;97.90
43651;DHT22;29247;50.944;5.382;2023-09-08T07:38:53;20.40;97.90
43651;DHT22;29247;50.944;5.382;2023-09-08T07:41:18;20.50;97.90
43651;DHT22;29247;50.944;5.382;2023-09-08T07:43:44;20.50;98.00
43651;DHT22;29247;50.944;5.382;2023-09-08T07:46:11;20.60;98.00
43651;DHT22;29247;50.944;5.382;2023-09-08T07:48:39;20.70;98.10
43651;DHT22;29247;50.944;5.382;2023-09-08T07:51:05;20.70;98.10
43651;DHT22;29247;50.944;5.382;2023-09-08T07:53:31;20.80;98.20
43651;DHT22;29247;50.944;5.382;2023-09-08T07:55:58;20.90;98.20
43651;DHT22;29247;50.944;5.382;2023-09-08T07:58:24;21.00;98.10
43651;DHT22;29247;50.944;5.382;2023-09-08T08:00:50;21.10;97.90
43651;DHT22;29247;50.944;5.382;2023-09-08T08:03:15;21.20;97.90
43651;DHT22;29247;50.944;5.382;2023-09-08T08:05:41;21.20;97.70
43651;DHT22;29247;50.944;5.382;2023-09-08T08:08:09;21.40;97.60
43651;DHT22;29247;50.944;5.382;2023-09-08T08:10:35;21.40;97.50
43651;DHT22;29247;50.944;5.382;2023-09-08T08:13:00;21.50;97.50
43651;DHT22;29247;50.944;5.382;2023-09-08T08:15:41;21.70;97.50
43651;DHT22;29247;50.944;5.382;2023-09-08T08:18:12;21.80;97.30
43651;DHT22;29247;50.944;5.382;2023-09-08T08:20:40;21.90;97.10
43651;DHT22;29247;50.944;5.382;2023-09-08T08:23:07;22.00;97.10
43651;DHT22;29247;50.944;5.382;2023-09-08T08:25:37;22.10;97.00
43651;DHT22;29247;50.944;5.382;2023-09-08T08:28:05;22.20;96.80
43651;DHT22;29247;50.944;5.382;2023-09-08T08:30:31;22.30;96.60
43651;DHT22;29247;50.944;5.382;2023-09-08T08:32:57;22.40;96.40
43651;DHT22;29247;50.944;5.382;2023-09-08T08:35:23;22.40;95.90
43651;DHT22;29247;50.944;5.382;2023-09-08T08:37:54;22.50;95.70
43651;DHT22;29247;50.944;5.382;2023-09-08T08:40:21;22.60;95.50
43651;DHT22;29247;50.944;5.382;2023-09-08T08:42:55;22.70;95.20
43651;DHT22;29247;50.944;5.382;2023-09-08T08:45:23;22.80;95.10
43651;DHT22;29247;50.944;5.382;2023-09-08T08:47:49;22.90;94.80
43651;DHT22;29247;50.944;5.382;2023-09-08T08:50:18;22.90;94.50
43651;DHT22;29247;50.944;5.382;2023-09-08T08:52:44;23.00;94.40
43651;DHT22;29247;50.944;5.382;2023-09-08T08:55:10;23.10;94.20
43651;DHT22;29247;50.944;5.382;2023-09-08T08:57:37;23.20;94.00
43651;DHT22;29247;50.944;5.382;2023-09-08T09:00:07;23.30;93.90
43651;DHT22;29247;50.944;5.382;2023-09-08T09:02:40;23.40;93.90
43651;DHT22;29247;50.944;5.382;2023-09-08T09:05:12;23.50;93.70
43651;DHT22;29247;50.944;5.382;2023-09-08T09:07:39;23.60;93.30
43651;DHT22;29247;50.944;5.382;2023-09-08T09:10:06;23.70;93.10
43651;DHT22;29247;50.944;5.382;2023-09-08T09:12:43;23.70;93.00
43651;DHT22;29247;50.944;5.382;2023-09-08T09:15:09;23.80;92.70
43651;DHT22;29247;50.944;5.382;2023-09-08T09:17:37;23.90;92.40
43651;DHT22;29247;50.944;5.382;2023-09-08T09:20:18;24.00;92.20
43651;DHT22;29247;50.944;5.382;2023-09-08T09:22:48;24.00;92.20
43651;DHT22;29247;50.944;5.382;2023-09-08T09:25:30;24.10;92.10
43651;DHT22;29247;50.944;5.382;2023-09-08T09:28:01;24.20;92.00
43651;DHT22;29247;50.944;5.382;2023-09-08T09:30:28;24.30;91.90
43651;DHT22;29247;50.944;5.382;2023-09-08T09:33:10;24.40;91.80
43651;DHT22;29247;50.944;5.382;2023-09-08T09:38:08;24.60;91.80
43651;DHT22;29247;50.944;5.382;2023-09-08T09:40:37;24.60;91.70
43651;DHT22;29247;50.944;5.382;2023-09-08T09:43:04;24.70;91.60
43651;DHT22;29247;50.944;5.382;2023-09-08T09:45:31;24.80;91.30
43651;DHT22;29247;50.944;5.382;2023-09-08T09:48:00;24.80;91.20
43651;DHT22;29247;50.944;5.382;2023-09-08T09:50:34;24.90;91.20
43651;DHT22;29247;50.944;5.382;2023-09-08T09:53:07;25.00;91.10
43651;DHT22;29247;50.944;5.382;2023-09-08T09:55:33;25.00;90.90
43651;DHT22;29247;50.944;5.382;2023-09-08T09:58:03;25.10;90.70
43651;DHT22;29247;50.944;5.382;2023-09-08T10:00:30;25.10;90.60
43651;DHT22;29247;50.944;5.382;2023-09-08T10:02:57;25.20;90.40
43651;DHT22;29247;50.944;5.382;2023-09-08T10:05:24;25.20;90.20
43651;DHT22;29247;50.944;5.382;2023-09-08T10:07:50;25.30;90.20
43651;DHT22;29247;50.944;5.382;2023-09-08T10:10:17;25.30;90.20
43651;DHT22;29247;50.944;5.382;2023-09-08T10:12:51;25.40;90.00
43651;DHT22;29247;50.944;5.382;2023-09-08T10:15:21;25.40;90.10
43651;DHT22;29247;50.944;5.382;2023-09-08T10:17:55;25.50;90.50
43651;DHT22;29247;50.944;5.382;2023-09-08T10:20:27;25.50;89.80
43651;DHT22;29247;50.944;5.382;2023-09-08T10:25:32;25.60;89.70
43651;DHT22;29247;50.944;5.382;2023-09-08T10:28:03;25.70;89.20
43651;DHT22;29247;50.944;5.382;2023-09-08T10:30:30;25.70;89.00
43651;DHT22;29247;50.944;5.382;2023-09-08T10:32:56;25.80;89.30
43651;DHT22;29247;50.944;5.382;2023-09-08T10:35:23;25.80;89.60
43651;DHT22;29247;50.944;5.382;2023-09-08T10:37:49;25.90;89.40
43651;DHT22;29247;50.944;5.382;2023-09-08T10:42:46;25.90;88.10
43651;DHT22;29247;50.944;5.382;2023-09-08T10:45:17;26.00;88.10
43651;DHT22;29247;50.944;5.382;2023-09-08T10:50:19;26.10;89.10
43651;DHT22;29247;50.944;5.382;2023-09-08T10:52:46;26.10;88.10
43651;DHT22;29247;50.944;5.382;2023-09-08T10:55:36;26.20;87.80
43651;DHT22;29247;50.944;5.382;2023-09-08T10:58:04;26.20;87.30
43651;DHT22;29247;50.944;5.382;2023-09-08T11:00:43;26.20;87.10
43651;DHT22;29247;50.944;5.382;2023-09-08T11:03:09;26.30;86.90
43651;DHT22;29247;50.944;5.382;2023-09-08T11:05:37;26.30;86.70
43651;DHT22;29247;50.944;5.382;2023-09-08T11:08:05;26.30;86.50
43651;DHT22;29247;50.944;5.382;2023-09-08T11:10:32;26.30;86.40
43651;DHT22;29247;50.944;5.382;2023-09-08T11:13:00;26.40;86.10
43651;DHT22;29247;50.944;5.382;2023-09-08T11:15:27;26.50;85.90
43651;DHT22;29247;50.944;5.382;2023-09-08T11:17:53;26.50;85.60
43651;DHT22;29247;50.944;5.382;2023-09-08T11:20:27;26.50;85.60
43651;DHT22;29247;50.944;5.382;2023-09-08T11:22:56;26.60;85.60
43651;DHT22;29247;50.944;5.382;2023-09-08T11:25:22;26.60;85.40
43651;DHT22;29247;50.944;5.382;2023-09-08T11:27:48;26.80;85.00
43651;DHT22;29247;50.944;5.382;2023-09-08T11:30:16;26.70;84.90
43651;DHT22;29247;50.944;5.382;2023-09-08T11:32:42;26.70;84.60
43651;DHT22;29247;50.944;5.382;2023-09-08T11:35:15;26.80;84.70
43651;DHT22;29247;50.944;5.382;2023-09-08T11:37:44;26.80;84.90
43651;DHT22;29247;50.944;5.382;2023-09-08T11:40:10;26.90;84.80
43651;DHT22;29247;50.944;5.382;2023-09-08T11:42:43;26.90;84.30
43651;DHT22;29247;50.944;5.382;2023-09-08T11:45:16;27.00;84.40
43651;DHT22;29247;50.944;5.382;2023-09-08T11:47:49;27.00;84.20
43651;DHT22;29247;50.944;5.382;2023-09-08T11:50:15;27.10;83.80
43651;DHT22;29247;50.944;5.382;2023-09-08T11:52:48;27.10;83.50
43651;DHT22;29247;50.944;5.382;2023-09-08T11:55:14;27.20;83.70
43651;DHT22;29247;50.944;5.382;2023-09-08T11:57:42;27.20;84.10
43651;DHT22;29247;50.944;5.382;2023-09-08T12:00:09;27.30;83.80
43651;DHT22;29247;50.944;5.382;2023-09-08T12:02:37;27.30;83.50
43651;DHT22;29247;50.944;5.382;2023-09-08T12:05:10;27.40;83.70
43651;DHT22;29247;50.944;5.382;2023-09-08T12:07:39;27.40;83.20
43651;DHT22;29247;50.944;5.382;2023-09-08T12:10:11;27.40;82.50
43651;DHT22;29247;50.944;5.382;2023-09-08T12:12:50;27.50;81.80
43651;DHT22;29247;50.944;5.382;2023-09-08T12:18:07;27.50;81.60
43651;DHT22;29247;50.944;5.382;2023-09-08T12:20:34;27.50;81.30
43651;DHT22;29247;50.944;5.382;2023-09-08T12:23:05;27.60;81.00
43651;DHT22;29247;50.944;5.382;2023-09-08T12:25:33;27.60;81.10
43651;DHT22;29247;50.944;5.382;2023-09-08T12:27:59;27.70;80.90
43651;DHT22;29247;50.944;5.382;2023-09-08T12:30:25;27.80;81.40
43651;DHT22;29247;50.944;5.382;2023-09-08T12:32:58;27.80;81.10
43651;DHT22;29247;50.944;5.382;2023-09-08T12:35:25;27.80;80.70
43651;DHT22;29247;50.944;5.382;2023-09-08T12:38:01;27.80;80.30
43651;DHT22;29247;50.944;5.382;2023-09-08T12:40:28;27.80;80.20
43651;DHT22;29247;50.944;5.382;2023-09-08T12:42:55;27.90;80.00
43651;DHT22;29247;50.944;5.382;2023-09-08T12:45:26;27.90;80.00
43651;DHT22;29247;50.944;5.382;2023-09-08T12:47:57;27.90;79.90
43651;DHT22;29247;50.944;5.382;2023-09-08T12:50:24;27.90;79.40
43651;DHT22;29247;50.944;5.382;2023-09-08T12:52:50;28.00;79.30
43651;DHT22;29247;50.944;5.382;2023-09-08T12:55:18;28.00;79.20
43651;DHT22;29247;50.944;5.382;2023-09-08T12:57:44;28.00;78.60
43651;DHT22;29247;50.944;5.382;2023-09-08T13:00:13;28.00;78.80
43651;DHT22;29247;50.944;5.382;2023-09-08T13:02:40;28.00;78.60
43651;DHT22;29247;50.944;5.382;2023-09-08T13:05:09;28.10;78.40
43651;DHT22;29247;50.944;5.382;2023-09-08T13:07:39;28.10;78.00
43651;DHT22;29247;50.944;5.382;2023-09-08T13:10:06;28.10;78.00
43651;DHT22;29247;50.944;5.382;2023-09-08T13:12:31;28.10;78.40
43651;DHT22;29247;50.944;5.382;2023-09-08T13:15:00;28.10;78.00
43651;DHT22;29247;50.944;5.382;2023-09-08T13:17:25;28.20;77.50
43651;DHT22;29247;50.944;5.382;2023-09-08T13:19:51;28.20;77.00
43651;DHT22;29247;50.944;5.382;2023-09-08T13:22:20;28.20;76.50
43651;DHT22;29247;50.944;5.382;2023-09-08T13:24:45;28.20;75.90
43651;DHT22;29247;50.944;5.382;2023-09-08T13:27:13;28.20;75.30
43651;DHT22;29247;50.944;5.382;2023-09-08T13:29:42;28.20;75.20
43651;DHT22;29247;50.944;5.382;2023-09-08T13:32:10;28.30;75.10
43651;DHT22;29247;50.944;5.382;2023-09-08T13:34:38;28.30;75.30
43651;DHT22;29247;50.944;5.382;2023-09-08T13:37:04;28.30;75.60
43651;DHT22;29247;50.944;5.382;2023-09-08T13:39:30;28.40;75.30
43651;DHT22;29247;50.944;5.382;2023-09-08T13:41:58;28.40;75.00
43651;DHT22;29247;50.944;5.382;2023-09-08T13:44:26;28.40;75.10
43651;DHT22;29247;50.944;5.382;2023-09-08T13:46:55;28.40;74.50
43651;DHT22;29247;50.944;5.382;2023-09-08T13:49:21;28.40;73.90
43651;DHT22;29247;50.944;5.382;2023-09-08T13:51:48;28.40;73.70
43651;DHT22;29247;50.944;5.382;2023-09-08T13:54:16;28.40;73.90
43651;DHT22;29247;50.944;5.382;2023-09-08T13:56:44;28.40;73.50
43651;DHT22;29247;50.944;5.382;2023-09-08T13:59:12;28.40;73.60
43651;DHT22;29247;50.944;5.382;2023-09-08T14:01:38;28.50;73.80
43651;DHT22;29247;50.944;5.382;2023-09-08T14:04:06;28.50;74.00
43651;DHT22;29247;50.944;5.382;2023-09-08T14:06:32;28.50;73.70
43651;DHT22;29247;50.944;5.382;2023-09-08T14:08:58;28.50;73.30
43651;DHT22;29247;50.944;5.382;2023-09-08T14:11:26;28.50;73.30
43651;DHT22;29247;50.944;5.382;2023-09-08T14:13:52;28.50;73.20
43651;DHT22;29247;50.944;5.382;2023-09-08T14:16:18;28.50;72.70
43651;DHT22;29247;50.944;5.382;2023-09-08T14:18:49;28.50;72.40
43651;DHT22;29247;50.944;5.382;2023-09-08T14:21:17;28.50;72.10
43651;DHT22;29247;50.944;5.382;2023-09-08T14:23:42;28.50;72.10
43651;DHT22;29247;50.944;5.382;2023-09-08T14:26:08;28.50;72.40
43651;DHT22;29247;50.944;5.382;2023-09-08T14:28:34;28.50;71.80
43651;DHT22;29247;50.944;5.382;2023-09-08T14:31:00;28.50;71.90
43651;DHT22;29247;50.944;5.382;2023-09-08T14:33:26;28.50;71.30
43651;DHT22;29247;50.944;5.382;2023-09-08T14:35:54;28.60;71.90
43651;DHT22;29247;50.944;5.382;2023-09-08T14:38:23;28.60;72.20
43651;DHT22;29247;50.944;5.382;2023-09-08T14:40:57;28.60;72.30
43651;DHT22;29247;50.944;5.382;2023-09-08T14:43:24;28.60;72.00
43651;DHT22;29247;50.944;5.382;2023-09-08T14:45:52;28.60;71.80
43651;DHT22;29247;50.944;5.382;2023-09-08T14:48:18;28.60;71.90
43651;DHT22;29247;50.944;5.382;2023-09-08T14:50:44;28.60;71.80
43651;DHT22;29247;50.944;5.382;2023-09-08T14:53:12;28.60;72.20
43651;DHT22;29247;50.944;5.382;2023-09-08T14:55:38;28.60;71.60
43651;DHT22;29247;50.944;5.382;2023-09-08T14:58:04;28.60;71.50
43651;DHT22;29247;50.944;5.382;2023-09-08T15:00:32;28.60;71.80
43651;DHT22;29247;50.944;5.382;2023-09-08T15:02:57;28.60;71.70
43651;DHT22;29247;50.944;5.382;2023-09-08T15:05:27;28.60;70.50
43651;DHT22;29247;50.944;5.382;2023-09-08T15:07:52;28.50;69.20
43651;DHT22;29247;50.944;5.382;2023-09-08T15:10:18;28.50;69.40
43651;DHT22;29247;50.944;5.382;2023-09-08T15:12:43;28.50;69.10
43651;DHT22;29247;50.944;5.382;2023-09-08T15:15:11;28.50;69.30
43651;DHT22;29247;50.944;5.382;2023-09-08T15:17:37;28.50;69.80
43651;DHT22;29247;50.944;5.382;2023-09-08T15:20:03;28.50;70.00
43651;DHT22;29247;50.944;5.382;2023-09-08T15:22:31;28.40;70.20
43651;DHT22;29247;50.944;5.382;2023-09-08T15:24:56;28.50;70.30
43651;DHT22;29247;50.944;5.382;2023-09-08T15:27:24;28.50;70.40
43651;DHT22;29247;50.944;5.382;2023-09-08T15:29:50;28.50;70.20
43651;DHT22;29247;50.944;5.382;2023-09-08T15:32:16;28.40;70.00
43651;DHT22;29247;50.944;5.382;2023-09-08T15:34:41;28.40;69.50
43651;DHT22;29247;50.944;5.382;2023-09-08T15:37:08;28.40;69.20
43651;DHT22;29247;50.944;5.382;2023-09-08T15:39:34;28.30;69.60
43651;DHT22;29247;50.944;5.382;2023-09-08T15:42:00;28.40;70.00
43651;DHT22;29247;50.944;5.382;2023-09-08T15:44:25;28.40;70.30
43651;DHT22;29247;50.944;5.382;2023-09-08T15:46:51;28.30;70.60
43651;DHT22;29247;50.944;5.382;2023-09-08T15:49:19;28.40;71.20